Time;durP1;ratioP1;P1;durP2;ratioP2;P2;SDS_P1;SDS_P2;PMS_P1;PMS_P2;Temp;Humidity;BMP_temperature;BMP_pressure;BME280_temperature;BME280_humidity;BME280_pressure;Samples;Min_cycle;Max_cycle;Signal;HPM_P1;HPM_P2
2022/05/14 00:01:09;;;;;;;5.60;2.70;;;11.20;99.90;;;;;;5026330;28;20198;-76
2022/05/14 00:03:38;;;;;;;3.35;2.75;;;11.20;99.90;;;;;;5025397;28;20026;-77
2022/05/14 00:06:05;;;;;;;4.50;2.30;;;11.10;99.90;;;;;;5027922;28;20036;-77
2022/05/14 00:08:32;;;;;;;3.55;2.65;;;11.00;99.90;;;;;;5027799;28;20072;-77
2022/05/14 00:13:46;;;;;;;1.95;1.85;;;11.00;99.90;;;;;;5026867;28;20073;-76
2022/05/14 00:16:14;;;;;;;2.53;2.33;;;10.90;99.90;;;;;;5026040;28;20050;-77
2022/05/14 00:18:39;;;;;;;4.10;2.50;;;10.80;99.90;;;;;;5025883;28;20035;-77
2022/05/14 00:21:05;;;;;;;4.07;2.58;;;10.80;99.90;;;;;;5041608;28;20369;-77
2022/05/14 00:23:31;;;;;;;18.55;9.23;;;10.80;99.90;;;;;;5025483;28;20097;-76
2022/05/14 00:25:57;;;;;;;4.43;2.80;;;10.90;99.90;;;;;;5042110;28;20034;-77
2022/05/14 00:28:23;;;;;;;3.03;2.70;;;10.90;99.90;;;;;;5027261;28;20041;-76
2022/05/14 00:30:49;;;;;;;4.78;2.70;;;10.80;99.90;;;;;;5028734;28;20029;-77
2022/05/14 00:33:16;;;;;;;3.70;3.10;;;10.80;99.90;;;;;;5028912;28;20022;-77
2022/05/14 00:35:42;;;;;;;3.47;2.58;;;;;;;;;;5043976;28;20034;-77
2022/05/14 00:38:08;;;;;;;17.65;3.20;;;10.60;99.90;;;;;;5044098;28;20026;-77
2022/05/14 00:40:54;;;;;;;3.72;2.20;;;10.50;99.90;;;;;;5042909;28;20022;-77
2022/05/14 00:43:21;;;;;;;4.20;2.28;;;10.50;99.90;;;;;;5027147;28;20032;-76
2022/05/14 00:46:05;;;;;;;3.40;2.90;;;10.50;99.90;;;;;;5047224;28;20038;-76
2022/05/14 00:48:36;;;;;;;4.10;2.40;;;10.60;99.90;;;;;;5031286;28;20037;-77
2022/05/14 00:51:02;;;;;;;3.58;2.38;;;10.50;99.90;;;;;;5047555;28;20021;-76
2022/05/14 00:53:35;;;;;;;7.90;2.78;;;10.50;99.90;;;;;;5041737;28;20038;-77
2022/05/14 00:56:08;;;;;;;2.35;2.15;;;10.40;99.90;;;;;;5040567;28;20029;-77
2022/05/14 00:59:01;;;;;;;3.80;2.42;;;10.40;99.90;;;;;;5025649;28;20601;-77
2022/05/14 01:01:27;;;;;;;3.10;2.10;;;10.40;99.90;;;;;;5029717;28;20089;-76
2022/05/14 01:03:52;;;;;;;2.85;2.53;;;10.40;99.90;;;;;;5029529;28;20064;-77
2022/05/14 01:06:19;;;;;;;3.60;2.20;;;10.30;99.90;;;;;;5028605;28;20057;-77
2022/05/14 01:08:47;;;;;;;6.75;3.35;;;10.40;99.90;;;;;;5030072;28;20378;-76
2022/05/14 01:11:22;;;;;;;5.35;2.72;;;10.70;99.90;;;;;;5029132;28;20053;-77
2022/05/14 01:13:47;;;;;;;2.85;2.55;;;10.70;99.90;;;;;;5026707;28;20025;-77
2022/05/14 01:16:13;;;;;;;3.22;2.72;;;10.70;99.90;;;;;;5025878;28;20796;-74
2022/05/14 01:18:39;;;;;;;5.25;2.55;;;10.60;99.90;;;;;;5041316;28;20130;-76
2022/05/14 01:21:05;;;;;;;4.20;2.15;;;;;;;;;;5024538;28;20030;-76
2022/05/14 01:26:35;;;;;;;5.43;3.40;;;10.70;99.90;;;;;;5023574;28;20380;-77
2022/05/14 01:29:08;;;;;;;3.53;2.20;;;10.90;99.90;;;;;;5022166;28;20014;-77
2022/05/14 01:31:35;;;;;;;3.50;2.70;;;10.90;99.90;;;;;;5017710;28;20073;-76
2022/05/14 01:34:08;;;;;;;6.00;2.50;;;11.00;99.90;;;;;;5019627;28;20534;-76
2022/05/14 01:36:35;;;;;;;5.50;2.80;;;11.00;99.90;;;;;;5025509;28;20022;-77
2022/05/14 01:39:00;;;;;;;10.80;3.35;;;10.90;99.90;;;;;;5023822;28;20022;-76
2022/05/14 01:41:26;;;;;;;5.32;3.50;;;11.00;99.90;;;;;;5022803;28;20032;-76
2022/05/14 01:43:52;;;;;;;3.10;2.17;;;11.00;99.90;;;;;;5020333;28;20026;-76
2022/05/14 01:46:18;;;;;;;3.80;2.47;;;11.00;99.90;;;;;;5024175;28;20041;-76
2022/05/14 01:48:44;;;;;;;4.95;2.40;;;11.00;99.90;;;;;;5023375;28;20022;-76
2022/05/14 01:51:10;;;;;;;3.92;2.22;;;10.90;99.90;;;;;;5027388;28;20030;-76
2022/05/14 01:53:35;;;;;;;11.63;4.18;;;10.90;99.90;;;;;;5026063;28;20018;-76
2022/05/14 01:56:01;;;;;;;3.00;2.67;;;10.90;99.90;;;;;;5025713;28;20030;-76
2022/05/14 01:58:39;;;;;;;5.35;2.55;;;10.90;99.90;;;;;;5042083;28;20014;-76
2022/05/14 02:01:33;;;;;;;3.55;3.25;;;11.00;99.90;;;;;;5025379;28;20022;-76
2022/05/14 02:04:01;;;;;;;4.00;2.75;;;11.00;99.90;;;;;;5024014;28;20034;-76
2022/05/14 02:06:29;;;;;;;4.07;2.65;;;11.00;99.90;;;;;;5028173;28;20030;-77
2022/05/14 02:08:55;;;;;;;2.97;2.50;;;10.80;99.90;;;;;;5026980;28;20077;-76
2022/05/14 02:11:21;;;;;;;5.65;3.30;;;10.80;99.90;;;;;;5027849;28;20081;-78
2022/05/14 02:13:48;;;;;;;5.80;3.17;;;10.90;99.90;;;;;;5026282;28;20029;-76
2022/05/14 02:16:14;;;;;;;3.40;3.13;;;;;;;;;;5045085;28;20298;-76
2022/05/14 02:18:41;;;;;;;5.90;2.92;;;11.00;99.90;;;;;;5030481;28;20025;-76
2022/05/14 02:21:07;;;;;;;4.68;3.22;;;11.00;99.90;;;;;;5044898;28;20029;-76
2022/05/14 02:23:36;;;;;;;4.95;3.08;;;10.90;99.90;;;;;;5044022;28;20025;-76
2022/05/14 02:26:04;;;;;;;3.97;3.00;;;10.80;99.90;;;;;;5026372;28;20061;-76
2022/05/14 02:28:29;;;;;;;5.63;3.17;;;10.60;99.90;;;;;;5028187;28;20041;-76
2022/05/14 02:30:55;;;;;;;10.27;3.58;;;10.60;99.90;;;;;;5027938;28;20017;-76
2022/05/14 02:33:21;;;;;;;5.40;2.88;;;10.60;99.90;;;;;;5028659;28;20025;-76
2022/05/14 02:35:46;;;;;;;4.80;2.70;;;10.60;99.90;;;;;;5025480;28;20049;-76
2022/05/14 02:38:18;;;;;;;4.30;2.63;;;10.60;99.90;;;;;;5021800;28;20022;-76
2022/05/14 02:40:44;;;;;;;3.70;3.00;;;10.50;99.90;;;;;;5021550;28;20057;-76
2022/05/14 02:43:11;;;;;;;7.10;2.63;;;10.50;99.90;;;;;;5021752;28;20073;-76
2022/05/14 02:45:37;;;;;;;5.85;3.30;;;10.40;99.90;;;;;;5023753;28;20034;-77
2022/05/14 02:48:03;;;;;;;4.32;2.60;;;10.40;99.90;;;;;;5043657;28;20034;-76
2022/05/14 02:50:29;;;;;;;3.78;2.90;;;10.30;99.90;;;;;;5024469;28;20077;-77
2022/05/14 02:52:55;;;;;;;5.85;2.58;;;10.30;99.90;;;;;;5020319;28;20128;-76
2022/05/14 02:55:20;;;;;;;6.50;3.00;;;10.20;99.90;;;;;;5023680;28;20018;-76
2022/05/14 02:57:46;;;;;;;3.92;2.65;;;10.10;99.90;;;;;;5025841;28;20026;-76
2022/05/14 03:00:16;;;;;;;4.00;2.60;;;10.00;99.90;;;;;;5024386;28;20036;-76
2022/05/14 03:02:42;;;;;;;;;;;10.00;99.90;;;;;;5025781;28;20072;-76
2022/05/14 03:05:09;;;;;;;5.15;2.83;;;10.00;99.90;;;;;;5036710;28;19917;-76
2022/05/14 03:07:35;;;;;;;4.57;2.70;;;10.10;99.90;;;;;;5026483;28;20018;-76
2022/05/14 03:10:01;;;;;;;6.93;3.67;;;10.10;99.90;;;;;;5025059;28;20090;-76
2022/05/14 03:12:27;;;;;;;5.03;2.47;;;10.10;99.90;;;;;;5023290;28;20199;-76
2022/05/14 03:14:52;;;;;;;4.45;3.20;;;10.20;99.90;;;;;;5022600;28;20112;-76
2022/05/14 03:17:18;;;;;;;5.70;2.65;;;10.20;99.90;;;;;;5024193;28;20249;-76
2022/05/14 03:19:44;;;;;;;3.92;2.60;;;10.20;99.90;;;;;;5040774;28;20064;-76
2022/05/14 03:22:11;;;;;;;6.07;2.60;;;10.10;99.90;;;;;;5040838;28;20052;-76
2022/05/14 03:24:37;;;;;;;4.03;2.53;;;9.90;99.90;;;;;;5040166;28;20053;-76
2022/05/14 03:27:03;;;;;;;2.40;2.20;;;9.80;99.90;;;;;;5026720;28;20046;-76
2022/05/14 03:29:29;;;;;;;4.15;3.05;;;9.90;99.90;;;;;;5025749;28;20018;-76
2022/05/14 03:31:57;;;;;;;10.25;4.05;;;9.90;99.90;;;;;;5024548;28;20049;-76
2022/05/14 03:34:23;;;;;;;4.07;2.85;;;9.90;99.90;;;;;;5019284;28;20025;-76
2022/05/14 03:36:50;;;;;;;3.03;2.67;;;9.80;99.90;;;;;;5031048;28;20169;-76
2022/05/14 03:39:16;;;;;;;4.47;2.53;;;9.70;99.90;;;;;;5035573;28;20049;-76
2022/05/14 03:41:42;;;;;;;2.97;2.42;;;;;;;;;;5025220;28;20030;-76
2022/05/14 03:44:08;;;;;;;3.88;2.00;;;9.60;99.90;;;;;;5043608;28;20072;-76
2022/05/14 03:46:34;;;;;;;3.63;2.70;;;9.50;99.90;;;;;;5028436;28;20034;-76
2022/05/14 03:49:01;;;;;;;3.42;2.30;;;9.40;99.90;;;;;;5027986;28;20040;-76
2022/05/14 03:51:28;;;;;;;3.60;2.90;;;9.40;99.90;;;;;;5027240;28;20036;-76
2022/05/14 03:53:54;;;;;;;3.88;2.90;;;9.40;99.90;;;;;;5025975;28;20077;-76
2022/05/14 03:56:20;;;;;;;3.83;2.83;;;9.40;99.90;;;;;;5026662;28;20028;-76
2022/05/14 03:58:46;;;;;;;4.65;3.25;;;9.40;99.90;;;;;;5025758;28;20090;-76
2022/05/14 04:01:12;;;;;;;4.20;2.95;;;9.40;99.90;;;;;;5027054;28;20022;-76
2022/05/14 04:03:39;;;;;;;4.32;2.47;;;9.40;99.90;;;;;;5027417;28;20046;-76
2022/05/14 04:06:05;;;;;;;3.97;2.60;;;9.40;99.90;;;;;;5028667;28;20038;-76
2022/05/14 04:08:32;;;;;;;4.65;3.00;;;9.40;99.90;;;;;;5026568;28;20024;-76
2022/05/14 04:10:58;;;;;;;3.95;2.83;;;9.40;99.90;;;;;;5038889;28;20034;-76
2022/05/14 04:13:23;;;;;;;2.72;2.30;;;9.50;99.90;;;;;;5021407;28;20022;-76
2022/05/14 04:15:49;;;;;;;4.78;2.72;;;9.50;99.90;;;;;;5025483;28;20045;-76
2022/05/14 04:18:20;;;;;;;4.90;2.90;;;9.40;99.90;;;;;;5028226;28;20049;-76
2022/05/14 04:20:45;;;;;;;4.40;3.30;;;9.40;99.90;;;;;;5041865;28;20195;-76
2022/05/14 04:23:11;;;;;;;4.63;2.58;;;9.30;99.90;;;;;;5028440;28;20095;-76
2022/05/14 04:25:37;;;;;;;3.70;2.78;;;9.40;99.90;;;;;;5042360;28;20217;-77
2022/05/14 04:28:02;;;;;;;2.22;2.00;;;9.30;99.90;;;;;;5027468;28;20288;-76
2022/05/14 04:30:28;;;;;;;2.60;2.38;;;9.40;99.90;;;;;;5025777;28;20018;-76
2022/05/14 04:32:54;;;;;;;2.72;2.53;;;9.30;99.90;;;;;;5042151;28;20317;-76
2022/05/14 04:35:20;;;;;;;3.40;2.72;;;9.40;99.90;;;;;;5027322;28;20081;-76
2022/05/14 04:37:45;;;;;;;2.83;2.58;;;9.40;99.90;;;;;;5027284;28;20025;-76
2022/05/14 04:40:12;;;;;;;3.63;2.53;;;9.70;99.90;;;;;;5026173;28;20347;-75
2022/05/14 04:42:38;;;;;;;2.67;2.47;;;9.80;99.90;;;;;;5027690;28;20036;-76
2022/05/14 04:45:09;;;;;;;7.88;2.53;;;10.10;99.90;;;;;;5041177;28;20036;-76
2022/05/14 04:47:35;;;;;;;5.72;3.00;;;10.00;99.90;;;;;;5024707;28;20049;-76
2022/05/14 04:50:02;;;;;;;3.78;2.80;;;10.10;99.90;;;;;;5023599;28;20033;-76
2022/05/14 04:52:27;;;;;;;3.78;2.22;;;10.10;99.90;;;;;;5039813;28;20026;-76
2022/05/14 04:54:53;;;;;;;3.70;2.28;;;10.20;99.90;;;;;;5039702;28;20026;-76
2022/05/14 04:57:19;;;;;;;2.65;2.40;;;10.20;99.90;;;;;;5041391;28;20093;-76
2022/05/14 04:59:44;;;;;;;5.15;3.53;;;10.30;99.90;;;;;;5040018;28;20021;-76
2022/05/14 05:04:54;;;;;;;5.68;3.20;;;10.60;99.90;;;;;;5019346;28;20032;-76
2022/05/14 05:07:20;;;;;;;5.63;2.60;;;10.70;99.90;;;;;;5019628;28;20037;-76
2022/05/14 05:09:46;;;;;;;4.75;2.50;;;10.80;99.90;;;;;;5024941;28;20021;-76
2022/05/14 05:12:12;;;;;;;2.30;1.70;;;10.90;99.90;;;;;;5034002;28;20030;-76
2022/05/14 05:14:38;;;;;;;1.80;1.70;;;;;;;;;;5033025;28;20041;-76
2022/05/14 05:17:04;;;;;;;3.03;2.45;;;11.00;99.90;;;;;;5018485;28;20026;-76
2022/05/14 05:19:30;;;;;;;2.75;2.38;;;11.10;99.90;;;;;;5034776;28;20090;-76
2022/05/14 05:21:57;;;;;;;3.05;2.30;;;;;;;;;;5021884;28;20274;-76
2022/05/14 05:24:22;;;;;;;2.45;2.22;;;11.20;99.90;;;;;;5037178;28;20269;-76
2022/05/14 05:26:48;;;;;;;3.70;2.05;;;11.30;99.90;;;;;;5023500;28;20345;-76
2022/05/14 05:29:15;;;;;;;2.70;2.50;;;11.30;99.90;;;;;;5023640;28;20100;-76
2022/05/14 05:31:41;;;;;;;4.45;2.05;;;11.40;99.90;;;;;;5039686;28;20029;-76
2022/05/14 05:34:07;;;;;;;3.65;1.70;;;11.50;99.90;;;;;;5023573;28;20032;-76
2022/05/14 05:36:33;;;;;;;2.10;1.90;;;11.70;99.90;;;;;;5022988;28;20317;-76
2022/05/14 05:38:58;;;;;;;6.15;2.47;;;11.90;99.90;;;;;;5024164;28;20033;-75
2022/05/14 05:41:24;;;;;;;3.08;2.63;;;12.00;99.90;;;;;;5023007;28;20037;-76
2022/05/14 05:43:50;;;;;;;4.88;2.40;;;12.20;99.90;;;;;;5024384;28;20261;-76
2022/05/14 05:46:16;;;;;;;7.75;3.45;;;12.30;99.90;;;;;;5020296;28;20038;-76
2022/05/14 05:48:43;;;;;;;2.90;2.15;;;12.40;99.90;;;;;;5018836;28;20029;-76
2022/05/14 05:51:09;;;;;;;3.05;2.75;;;12.50;99.90;;;;;;5019616;28;20037;-76
2022/05/14 05:59:17;;;;;;;3.13;2.58;;;12.90;99.90;;;;;;5031344;28;20021;-76
2022/05/14 06:01:44;;;;;;;2.28;1.95;;;13.10;99.90;;;;;;5044777;28;20064;-77
2022/05/14 06:04:10;;;;;;;4.82;2.00;;;13.30;99.90;;;;;;5027304;28;20030;-76
2022/05/14 06:06:41;;;;;;;2.40;2.20;;;13.40;99.90;;;;;;5044232;28;20065;-77
2022/05/14 06:09:08;;;;;;;3.72;1.50;;;13.30;99.90;;;;;;5029746;28;20434;-76
2022/05/14 06:11:34;;;;;;;3.72;2.03;;;13.30;99.90;;;;;;5028808;28;20037;-76
2022/05/14 06:13:59;;;;;;;6.20;2.65;;;13.30;99.90;;;;;;5043787;28;20022;-76
2022/05/14 06:16:26;;;;;;;4.22;1.77;;;13.50;99.90;;;;;;5023165;28;20026;-77
2022/05/14 06:18:52;;;;;;;3.33;1.70;;;13.90;99.90;;;;;;5032913;28;20026;-77
2022/05/14 06:21:18;;;;;;;2.75;1.60;;;14.40;99.90;;;;;;5032187;28;20056;-77
2022/05/14 06:23:44;;;;;;;3.08;2.30;;;14.80;99.90;;;;;;5021510;28;20277;-77
2022/05/14 06:26:10;;;;;;;3.78;2.05;;;14.80;99.90;;;;;;5022658;28;20038;-77
2022/05/14 06:28:35;;;;;;;3.58;2.97;;;14.90;99.90;;;;;;5021720;28;20033;-77
2022/05/14 06:31:01;;;;;;;2.50;2.25;;;14.90;99.90;;;;;;5023137;28;20093;-78
2022/05/14 06:33:28;;;;;;;4.53;1.65;;;14.70;99.90;;;;;;5023102;28;20325;-77
2022/05/14 06:35:54;;;;;;;4.95;2.08;;;14.80;99.90;;;;;;5026923;28;20069;-77
2022/05/14 06:38:20;;;;;;;2.72;2.15;;;14.60;99.90;;;;;;5028400;28;20104;-77
2022/05/14 06:40:46;;;;;;;4.00;2.70;;;14.60;99.90;;;;;;5028018;28;20030;-77
2022/05/14 06:43:15;;;;;;;4.07;1.85;;;14.80;99.90;;;;;;5026733;28;20022;-77
2022/05/14 06:45:45;;;;;;;3.92;1.98;;;15.00;99.90;;;;;;5025968;28;20041;-78
2022/05/14 06:48:12;;;;;;;3.72;2.17;;;15.30;99.90;;;;;;5027700;28;20022;-78
2022/05/14 06:50:44;;;;;;;2.92;2.05;;;15.60;99.90;;;;;;5023220;28;20086;-79
2022/05/14 06:53:10;;;;;;;3.25;2.42;;;15.80;99.90;;;;;;5022329;28;20105;-81
2022/05/14 06:55:39;;;;;;;2.85;1.77;;;15.60;99.90;;;;;;5022773;28;20181;-74
2022/05/14 06:58:08;;;;;;;2.38;1.95;;;15.20;99.90;;;;;;5023610;28;20085;-75
2022/05/14 07:00:34;;;;;;;3.78;2.13;;;15.20;99.90;;;;;;5021458;28;20505;-76
2022/05/14 07:08:28;;;;;;;4.25;2.17;;;15.40;99.90;;;;;;5022922;28;20061;-76
2022/05/14 07:10:54;;;;;;;3.30;2.78;;;15.70;99.90;;;;;;5021645;28;20021;-76
2022/05/14 07:13:19;;;;;;;2.00;1.90;;;16.10;99.90;;;;;;5022874;28;20018;-76
2022/05/14 07:15:45;;;;;;;9.75;2.60;;;16.40;99.90;;;;;;5019872;28;20264;-75
2022/05/14 07:18:11;;;;;;;3.03;2.13;;;17.20;99.90;;;;;;5020709;28;20018;-76
2022/05/14 07:20:36;;;;;;;1.83;1.48;;;18.30;99.90;;;;;;5021817;28;20033;-75
2022/05/14 07:23:03;;;;;;;2.28;1.85;;;18.60;99.90;;;;;;5015862;28;20474;-75
2022/05/14 07:25:28;;;;;;;2.35;2.00;;;18.90;99.90;;;;;;5020977;28;20026;-75
2022/05/14 07:27:54;;;;;;;2.65;1.65;;;18.40;99.90;;;;;;5016302;28;20364;-76
2022/05/14 07:30:21;;;;;;;2.50;1.75;;;18.50;99.90;;;;;;5013896;28;20217;-81
2022/05/14 07:32:47;;;;;;;3.10;2.33;;;18.50;99.90;;;;;;5015382;28;20040;-77
2022/05/14 07:35:12;;;;;;;2.40;1.70;;;17.90;99.90;;;;;;5018900;28;20282;-76
2022/05/14 07:37:47;;;;;;;3.78;2.45;;;18.20;99.90;;;;;;5013370;28;20030;-78
2022/05/14 07:40:19;;;;;;;5.10;1.70;;;18.80;99.90;;;;;;5018953;28;20026;-77
2022/05/14 07:42:59;;;;;;;3.20;1.38;;;20.10;99.90;;;;;;5011402;28;20474;-78
2022/05/14 07:45:45;;;;;;;2.33;1.67;;;19.10;99.90;;;;;;5012604;28;20113;-77
2022/05/14 07:48:39;;;;;;;4.63;1.63;;;19.00;99.90;;;;;;5007792;28;20382;-77
2022/05/14 07:51:07;;;;;;;6.85;1.77;;;20.00;99.90;;;;;;5008228;28;20034;-78
2022/05/14 07:53:34;;;;;;;3.30;1.55;;;20.30;99.90;;;;;;5009319;28;20071;-77
2022/05/14 07:56:01;;;;;;;2.25;1.88;;;21.10;99.90;;;;;;5008271;28;20405;-77
2022/05/14 07:58:27;;;;;;;4.38;1.60;;;21.70;99.10;;;;;;5008554;28;20643;-79
2022/05/14 08:00:58;;;;;;;2.35;1.65;;;21.00;99.90;;;;;;5007976;28;20025;-79
2022/05/14 08:03:24;;;;;;;3.42;1.30;;;20.40;99.90;;;;;;5009615;28;20033;-77
2022/05/14 08:05:51;;;;;;;5.63;1.45;;;19.70;99.90;;;;;;5009335;28;20038;-78
2022/05/14 08:08:17;;;;;;;1.33;1.23;;;20.40;99.90;;;;;;5008195;28;20026;-77
2022/05/14 08:10:43;;;;;;;3.20;2.10;;;20.70;99.90;;;;;;5012258;28;20022;-78
2022/05/14 08:13:15;;;;;;;3.45;1.58;;;20.90;99.90;;;;;;5008435;28;20022;-77
2022/05/14 08:15:42;;;;;;;2.92;1.50;;;21.10;99.90;;;;;;5010539;28;20038;-77
2022/05/14 08:18:08;;;;;;;2.10;1.45;;;21.20;99.90;;;;;;5009441;28;20045;-79
2022/05/14 08:20:35;;;;;;;7.47;3.65;;;19.80;99.90;;;;;;5014868;28;20332;-79
2022/05/14 08:25:45;;;;;;;2.83;2.08;;;20.20;99.90;;;;;;5019742;28;20065;-79
2022/05/14 08:28:10;;;;;;;5.70;2.00;;;20.50;99.90;;;;;;5014920;28;20494;-78
2022/05/14 08:30:37;;;;;;;3.25;2.28;;;20.50;99.90;;;;;;5018633;28;20199;-78
2022/05/14 08:33:04;;;;;;;2.67;1.90;;;20.20;99.90;;;;;;5020318;28;20045;-76
2022/05/14 08:35:30;;;;;;;7.10;2.97;;;20.40;99.90;;;;;;5014621;28;20045;-77
2022/05/14 08:37:57;;;;;;;3.55;2.63;;;19.60;99.90;;;;;;5017335;28;20126;-78
2022/05/14 08:40:37;;;;;;;4.10;2.17;;;19.70;99.90;;;;;;5016945;28;20025;-78
2022/05/14 08:43:06;;;;;;;2.10;1.77;;;19.80;99.90;;;;;;5017748;28;20203;-82
2022/05/14 08:45:36;;;;;;;9.13;4.00;;;19.20;99.90;;;;;;5019836;28;20038;-80
2022/05/14 08:48:25;;;;;;;4.95;2.80;;;19.40;99.90;;;;;;5018496;28;20255;-78
2022/05/14 08:51:15;;;;;;;7.57;2.95;;;17.40;99.90;;;;;;5034730;28;20025;-78
2022/05/14 08:53:42;;;;;;;3.17;2.03;;;20.10;99.90;;;;;;5019249;28;20017;-78
2022/05/14 08:56:21;;;;;;;3.17;2.80;;;;;;;;;;5034612;28;20029;-77
2022/05/14 08:59:25;;;;;;;3.78;2.20;;;20.10;99.90;;;;;;5017861;28;20029;-80
2022/05/14 09:01:57;;;;;;;2.47;2.22;;;21.00;99.90;;;;;;5019546;28;20037;-77
2022/05/14 09:04:24;;;;;;;4.57;3.20;;;21.20;99.90;;;;;;5019760;28;20026;-78
2022/05/14 09:06:50;;;;;;;2.67;1.70;;;21.00;99.90;;;;;;5019389;28;20038;-78
2022/05/14 09:09:18;;;;;;;3.90;1.70;;;21.10;99.90;;;;;;5016005;28;20021;-77
2022/05/14 09:12:00;;;;;;;4.60;1.75;;;21.20;99.90;;;;;;5019874;28;20026;-80
2022/05/14 09:14:35;;;;;;;2.88;1.75;;;20.70;99.90;;;;;;5019617;28;20046;-77
2022/05/14 09:17:20;;;;;;;1.98;1.45;;;21.10;99.90;;;;;;5019650;28;20028;-79
2022/05/14 09:19:47;;;;;;;2.40;1.50;;;20.80;99.90;;;;;;5019580;28;20025;-85
2022/05/14 09:22:25;;;;;;;1.63;1.52;;;20.30;99.90;;;;;;5034860;28;20031;-84
2022/05/14 09:24:52;;;;;;;4.53;1.65;;;20.50;99.90;;;;;;5019501;28;20022;-84
2022/05/14 09:27:30;;;;;;;4.78;2.00;;;20.60;99.90;;;;;;5017754;28;20033;-84
2022/05/14 09:30:02;;;;;;;7.13;3.10;;;20.40;99.90;;;;;;5034441;28;20091;-78
2022/05/14 09:32:43;;;;;;;2.50;1.75;;;20.40;99.90;;;;;;5019836;28;20030;-84
2022/05/14 09:35:14;;;;;;;2.17;1.52;;;21.00;99.90;;;;;;5019496;28;20081;-81
2022/05/14 09:37:42;;;;;;;2.80;1.60;;;21.40;99.90;;;;;;5018147;28;20080;-81
2022/05/14 09:40:13;;;;;;;4.50;1.83;;;20.90;99.90;;;;;;5034953;28;20025;-82
2022/05/14 09:42:46;;;;;;;12.23;1.77;;;20.80;99.90;;;;;;5019879;28;20018;-80
2022/05/14 09:45:34;;;;;;;1.85;1.75;;;20.50;99.90;;;;;;5020186;28;20225;-79
2022/05/14 09:48:19;;;;;;;1.63;1.48;;;20.10;99.90;;;;;;5011796;28;20441;-82
2022/05/14 09:50:51;;;;;;;1.77;1.35;;;20.40;99.90;;;;;;5010523;28;20033;-78
2022/05/14 09:53:27;;;;;;;2.45;1.85;;;20.90;99.90;;;;;;5009970;28;20058;-82
2022/05/14 09:56:17;;;;;;;2.75;1.80;;;20.40;99.90;;;;;;5009768;28;20053;-78
2022/05/14 09:58:52;;;;;;;3.92;1.90;;;20.90;99.90;;;;;;5008844;28;20080;-80
2022/05/14 10:01:53;;;;;;;4.53;1.42;;;21.00;99.90;;;;;;5010769;28;20383;-77
2022/05/14 10:05:07;;;;;;;2.05;1.33;;;21.10;99.90;;;;;;4993296;28;20026;-78
2022/05/14 10:07:39;;;;;;;5.38;1.85;;;21.30;99.90;;;;;;5000047;28;20232;-81
2022/05/14 10:10:13;;;;;;;2.15;1.60;;;20.90;99.90;;;;;;5015145;28;20078;-79
2022/05/14 10:13:06;;;;;;;1.48;1.38;;;20.90;99.90;;;;;;5013000;28;20037;-79
2022/05/14 10:15:32;;;;;;;2.25;1.42;;;21.10;99.90;;;;;;5028312;28;20045;-77
2022/05/14 10:18:22;;;;;;;2.63;1.60;;;21.00;99.90;;;;;;5015645;28;20026;-78
2022/05/14 10:21:27;;;;;;;3.03;1.90;;;21.10;99.90;;;;;;5010858;28;20478;-82
2022/05/14 10:27:04;;;;;;;1.90;1.73;;;21.60;99.20;;;;;;5016306;28;20092;-75
2022/05/14 10:29:48;;;;;;;2.28;1.23;;;22.40;95.40;;;;;;5018123;28;20364;-74
2022/05/14 10:32:17;;;;;;;2.33;2.08;;;22.20;79.30;;;;;;5018820;28;20087;-74
2022/05/14 10:35:24;;;;;;;4.35;1.52;;;21.30;98.50;;;;;;5015857;28;20059;-74
2022/05/14 10:38:20;;;;;;;4.15;2.22;;;21.90;94.10;;;;;;5036035;28;20026;-76
2022/05/14 10:40:51;;;;;;;2.40;1.73;;;21.60;91.80;;;;;;5019665;28;20083;-77
2022/05/14 10:43:30;;;;;;;2.47;1.13;;;22.10;99.90;;;;;;5036165;28;20042;-74
2022/05/14 10:45:59;;;;;;;2.17;1.65;;;22.80;92.40;;;;;;5018258;28;20029;-74
2022/05/14 10:48:35;;;;;;;2.65;1.50;;;22.80;74.10;;;;;;5036956;28;20032;-73
2022/05/14 10:51:03;;;;;;;1.77;1.30;;;22.00;85.10;;;;;;5021081;28;20072;-75
2022/05/14 10:53:30;;;;;;;2.97;1.10;;;22.30;80.00;;;;;;5021675;28;20014;-75
2022/05/14 10:55:58;;;;;;;4.22;1.77;;;22.00;80.10;;;;;;5037195;28;20030;-75
2022/05/14 10:58:57;;;;;;;1.80;1.30;;;22.90;75.00;;;;;;5020666;28;20333;-76
2022/05/14 11:01:41;;;;;;;2.38;1.60;;;22.90;70.90;;;;;;5021048;28;20097;-82
2022/05/14 11:04:12;;;;;;;5.13;1.63;;;24.10;67.20;;;;;;5021217;28;20057;-82
2022/05/14 11:07:11;;;;;;;6.53;1.65;;;24.00;66.30;;;;;;5023725;28;20364;-84
2022/05/14 11:09:42;;;;;;;1.35;1.25;;;24.00;65.10;;;;;;5014635;28;20109;-83
2022/05/14 11:12:30;;;;;;;3.08;1.30;;;23.80;66.10;;;;;;5034142;28;20133;-84
2022/05/14 11:15:01;;;;;;;1.50;1.40;;;23.60;65.50;;;;;;5019936;28;20054;-80
2022/05/14 11:17:34;;;;;;;1.73;1.33;;;23.30;67.10;;;;;;5037576;28;20339;-84
2022/05/14 11:20:03;;;;;;;2.35;0.95;;;24.00;67.10;;;;;;5036701;28;20453;-81
2022/05/14 11:22:44;;;;;;;4.50;1.30;;;23.90;67.20;;;;;;5020947;28;20022;-83
2022/05/14 11:25:25;;;;;;;2.40;1.65;;;23.00;70.70;;;;;;5020188;28;20049;-86
2022/05/14 11:27:56;;;;;;;1.30;1.17;;;22.70;73.10;;;;;;5020412;28;20033;-85
2022/05/14 11:30:49;;;;;;;1.90;1.40;;;22.90;70.40;;;;;;5036908;28;20026;-80
2022/05/14 11:33:26;;;;;;;3.95;1.38;;;23.70;68.00;;;;;;5019472;28;20042;-80
2022/05/14 11:36:01;;;;;;;1.30;0.80;;;23.70;65.10;;;;;;5021361;28;20033;-80
2022/05/14 11:38:26;;;;;;;2.63;0.70;;;24.30;68.50;;;;;;5019932;28;20030;-83
2022/05/14 11:41:09;;;;;;;1.08;0.95;;;24.40;66.70;;;;;;5021117;28;20332;-80
2022/05/14 11:43:42;;;;;;;2.50;0.95;;;24.80;65.70;;;;;;5020105;28;20072;-82
2022/05/14 11:46:31;;;;;;;2.95;1.15;;;25.40;63.30;;;;;;5019657;28;20069;-80
2022/05/14 11:49:21;;;;;;;2.00;1.10;;;26.00;62.40;;;;;;5035857;28;20026;-83
2022/05/14 11:51:53;;;;;;;1.05;1.02;;;25.70;58.90;;;;;;5020048;28;20091;-82
2022/05/14 11:54:43;;;;;;;2.30;1.38;;;25.40;61.00;;;;;;5020609;28;20190;-83
2022/05/14 11:57:19;;;;;;;2.15;0.73;;;25.20;59.50;;;;;;5036765;28;20026;-82
2022/05/14 11:59:58;;;;;;;1.77;1.15;;;25.80;60.30;;;;;;5019660;28;20018;-82
2022/05/14 12:02:42;;;;;;;;;;;25.70;59.00;;;;;;5021839;28;20153;-82
2022/05/14 12:05:16;;;;;;;1.75;1.20;;;24.40;59.70;;;;;;5019028;28;19913;-82
2022/05/14 12:08:05;;;;;;;0.95;0.95;;;24.40;61.20;;;;;;5020869;28;20084;-83
2022/05/14 12:10:56;;;;;;;1.02;0.70;;;24.70;60.50;;;;;;5001045;28;20037;-83
2022/05/14 12:13:28;;;;;;;1.90;0.85;;;;;;;;;;5019498;28;20048;-82
2022/05/14 12:15:57;;;;;;;2.70;1.13;;;26.00;57.40;;;;;;5019825;28;20037;-80
2022/05/14 12:18:24;;;;;;;1.27;1.08;;;25.70;58.10;;;;;;5021371;28;20063;-82
2022/05/14 12:21:16;;;;;;;1.65;0.98;;;25.70;59.40;;;;;;5021145;28;20022;-83
2022/05/14 12:23:45;;;;;;;2.88;1.15;;;25.70;60.30;;;;;;5017338;28;20030;-82
2022/05/14 12:26:29;;;;;;;1.88;0.75;;;25.30;58.00;;;;;;5035602;28;20262;-84
2022/05/14 12:28:58;;;;;;;1.75;1.65;;;25.10;57.20;;;;;;5035441;28;20026;-84
2022/05/14 12:34:13;;;;;;;;;;;25.40;58.40;;;;;;5020220;28;19915;-82
2022/05/14 12:36:44;;;;;;;1.13;0.80;;;24.90;57.90;;;;;;5035705;28;19940;-82
2022/05/14 12:39:17;;;;;;;1.25;1.10;;;24.40;56.80;;;;;;5019935;28;20089;-83
2022/05/14 12:41:46;;;;;;;3.30;0.95;;;24.50;57.50;;;;;;5020233;28;20340;-82
2022/05/14 12:44:16;;;;;;;4.38;1.42;;;24.80;56.60;;;;;;5035510;28;20042;-82
2022/05/14 12:46:45;;;;;;;2.78;0.90;;;25.00;55.60;;;;;;5020797;28;20061;-82
2022/05/14 12:49:26;;;;;;;1.73;0.80;;;26.00;55.60;;;;;;5034726;28;20022;-82
2022/05/14 12:51:58;;;;;;;1.42;1.00;;;26.70;54.00;;;;;;5035802;28;20999;-83
2022/05/14 12:54:27;;;;;;;1.55;1.08;;;26.60;53.50;;;;;;5019861;28;20037;-84
2022/05/14 12:56:57;;;;;;;0.60;0.40;;;26.30;54.50;;;;;;5034888;28;20360;-81
2022/05/14 12:59:22;;;;;;;1.33;1.08;;;26.90;55.60;;;;;;5034636;28;20108;-83
2022/05/14 13:01:51;;;;;;;1.67;1.38;;;25.60;57.20;;;;;;5035376;28;20033;-82
2022/05/14 13:04:22;;;;;;;0.60;0.60;;;26.80;54.70;;;;;;5019753;28;20063;-83
2022/05/14 13:06:48;;;;;;;1.48;0.60;;;26.70;51.50;;;;;;5035373;28;20075;-84
2022/05/14 13:09:22;;;;;;;2.00;1.05;;;26.70;52.10;;;;;;5019711;28;20026;-82
2022/05/14 13:11:50;;;;;;;1.92;0.68;;;27.00;55.80;;;;;;5019908;28;20592;-82
2022/05/14 13:14:25;;;;;;;4.30;1.35;;;27.20;52.10;;;;;;5034798;28;20252;-82
2022/05/14 13:17:06;;;;;;;1.00;0.63;;;25.80;52.10;;;;;;5034555;28;20481;-82
2022/05/14 13:19:36;;;;;;;0.90;0.55;;;25.50;54.60;;;;;;5018607;28;20093;-82
2022/05/14 13:22:04;;;;;;;4.95;1.15;;;26.30;53.90;;;;;;5018466;28;20030;-84
2022/05/14 13:24:33;;;;;;;1.50;1.10;;;26.80;55.90;;;;;;5034564;28;20021;-82
2022/05/14 13:27:03;;;;;;;2.00;0.70;;;27.00;49.90;;;;;;5035221;28;20117;-81
2022/05/14 13:29:35;;;;;;;0.90;0.85;;;27.60;49.40;;;;;;5019346;28;20033;-81
2022/05/14 13:32:24;;;;;;;1.67;0.93;;;28.20;48.20;;;;;;5019393;28;20371;-81
2022/05/14 13:37:41;;;;;;;;;;;28.50;49.30;;;;;;5018418;28;20041;-82
2022/05/14 13:40:10;;;;;;;1.05;0.52;;;28.60;48.90;;;;;;5034589;28;19976;-86